sensor_id;sensor_type;location;lat;lon;timestamp;temperature;humidity
19415;DHT22;9843;48.882;12.592;2022-08-21T00:00:33;17.40;99.90
19415;DHT22;9843;48.882;12.592;2022-08-21T00:03:09;17.40;99.90
19415;DHT22;9843;48.882;12.592;2022-08-21T00:05:41;17.40;99.90
19415;DHT22;9843;48.882;12.592;2022-08-21T00:08:09;17.50;99.90
19415;DHT22;9843;48.882;12.592;2022-08-21T00:10:35;17.50;99.90
19415;DHT22;9843;48.882;12.592;2022-08-21T00:13:04;17.50;99.90
19415;DHT22;9843;48.882;12.592;2022-08-21T00:15:32;17.50;99.90
19415;DHT22;9843;48.882;12.592;2022-08-21T00:18:01;17.50;99.90
19415;DHT22;9843;48.882;12.592;2022-08-21T00:20:28;17.50;99.90
19415;DHT22;9843;48.882;12.592;2022-08-21T00:22:56;17.60;99.90
19415;DHT22;9843;48.882;12.592;2022-08-21T00:25:23;17.60;99.90
19415;DHT22;9843;48.882;12.592;2022-08-21T00:27:50;17.50;99.90
19415;DHT22;9843;48.882;12.592;2022-08-21T00:30:18;17.60;99.90
19415;DHT22;9843;48.882;12.592;2022-08-21T00:32:45;17.60;99.90
19415;DHT22;9843;48.882;12.592;2022-08-21T00:35:14;17.60;99.90
19415;DHT22;9843;48.882;12.592;2022-08-21T00:37:41;17.60;99.90
19415;DHT22;9843;48.882;12.592;2022-08-21T00:40:12;17.60;99.90
19415;DHT22;9843;48.882;12.592;2022-08-21T00:42:40;17.60;99.90
19415;DHT22;9843;48.882;12.592;2022-08-21T00:45:07;17.60;99.90
19415;DHT22;9843;48.882;12.592;2022-08-21T00:47:34;17.60;99.90
19415;DHT22;9843;48.882;12.592;2022-08-21T00:50:02;17.60;99.90
19415;DHT22;9843;48.882;12.592;2022-08-21T00:52:32;17.60;99.90
19415;DHT22;9843;48.882;12.592;2022-08-21T00:55:00;17.50;99.90
19415;DHT22;9843;48.882;12.592;2022-08-21T00:57:31;17.60;99.90
19415;DHT22;9843;48.882;12.592;2022-08-21T01:00:03;17.60;99.90
19415;DHT22;9843;48.882;12.592;2022-08-21T01:02:30;17.60;99.90
19415;DHT22;9843;48.882;12.592;2022-08-21T01:04:57;17.60;99.90
19415;DHT22;9843;48.882;12.592;2022-08-21T01:07:24;17.60;99.90
19415;DHT22;9843;48.882;12.592;2022-08-21T01:09:51;17.60;99.90
19415;DHT22;9843;48.882;12.592;2022-08-21T01:12:18;17.70;99.90
19415;DHT22;9843;48.882;12.592;2022-08-21T01:14:46;17.70;99.90
19415;DHT22;9843;48.882;12.592;2022-08-21T01:17:14;17.70;99.90
19415;DHT22;9843;48.882;12.592;2022-08-21T01:19:42;17.70;99.90
19415;DHT22;9843;48.882;12.592;2022-08-21T01:22:10;17.70;99.90
19415;DHT22;9843;48.882;12.592;2022-08-21T01:24:37;17.70;99.90
19415;DHT22;9843;48.882;12.592;2022-08-21T01:27:05;17.70;99.90
19415;DHT22;9843;48.882;12.592;2022-08-21T01:29:34;17.70;99.90
19415;DHT22;9843;48.882;12.592;2022-08-21T01:32:05;17.70;99.90
19415;DHT22;9843;48.882;12.592;2022-08-21T01:34:33;17.70;99.90
19415;DHT22;9843;48.882;12.592;2022-08-21T01:37:00;17.70;99.90
19415;DHT22;9843;48.882;12.592;2022-08-21T01:39:29;17.60;99.90
19415;DHT22;9843;48.882;12.592;2022-08-21T01:41:56;17.60;99.90
19415;DHT22;9843;48.882;12.592;2022-08-21T01:44:23;17.60;99.90
19415;DHT22;9843;48.882;12.592;2022-08-21T01:46:50;17.60;99.90
19415;DHT22;9843;48.882;12.592;2022-08-21T01:49:17;17.50;99.90
19415;DHT22;9843;48.882;12.592;2022-08-21T01:51:44;17.50;99.90
19415;DHT22;9843;48.882;12.592;2022-08-21T01:54:11;17.50;99.90
19415;DHT22;9843;48.882;12.592;2022-08-21T01:56:43;17.40;99.90
19415;DHT22;9843;48.882;12.592;2022-08-21T01:59:11;17.40;99.90
19415;DHT22;9843;48.882;12.592;2022-08-21T02:01:38;17.40;99.90
19415;DHT22;9843;48.882;12.592;2022-08-21T02:04:06;17.30;99.90
19415;DHT22;9843;48.882;12.592;2022-08-21T02:06:33;17.30;99.90
19415;DHT22;9843;48.882;12.592;2022-08-21T02:09:00;17.20;99.90
19415;DHT22;9843;48.882;12.592;2022-08-21T02:11:26;17.20;99.90
19415;DHT22;9843;48.882;12.592;2022-08-21T02:13:54;17.10;99.90
19415;DHT22;9843;48.882;12.592;2022-08-21T02:16:21;17.10;99.90
19415;DHT22;9843;48.882;12.592;2022-08-21T02:18:48;17.10;99.90
19415;DHT22;9843;48.882;12.592;2022-08-21T02:21:15;17.10;99.90
19415;DHT22;9843;48.882;12.592;2022-08-21T02:23:42;17.10;99.90
19415;DHT22;9843;48.882;12.592;2022-08-21T02:26:09;17.00;99.90
19415;DHT22;9843;48.882;12.592;2022-08-21T02:28:36;17.00;99.90
19415;DHT22;9843;48.882;12.592;2022-08-21T02:31:05;17.10;99.90
19415;DHT22;9843;48.882;12.592;2022-08-21T02:33:32;17.00;99.90
19415;DHT22;9843;48.882;12.592;2022-08-21T02:35:59;17.00;99.90
19415;DHT22;9843;48.882;12.592;2022-08-21T02:38:29;17.10;99.90
19415;DHT22;9843;48.882;12.592;2022-08-21T02:40:58;17.10;99.90
19415;DHT22;9843;48.882;12.592;2022-08-21T02:43:27;17.10;99.90
19415;DHT22;9843;48.882;12.592;2022-08-21T02:45:54;17.10;99.90
19415;DHT22;9843;48.882;12.592;2022-08-21T02:48:24;17.10;99.90
19415;DHT22;9843;48.882;12.592;2022-08-21T02:50:53;17.20;99.90
19415;DHT22;9843;48.882;12.592;2022-08-21T02:53:21;17.20;99.90
19415;DHT22;9843;48.882;12.592;2022-08-21T02:55:50;17.20;99.90
19415;DHT22;9843;48.882;12.592;2022-08-21T02:58:24;17.20;99.90
19415;DHT22;9843;48.882;12.592;2022-08-21T03:00:51;17.30;99.90
19415;DHT22;9843;48.882;12.592;2022-08-21T03:03:18;17.30;99.90
19415;DHT22;9843;48.882;12.592;2022-08-21T03:05:48;17.30;99.90
19415;DHT22;9843;48.882;12.592;2022-08-21T03:08:15;17.40;99.90
19415;DHT22;9843;48.882;12.592;2022-08-21T03:10:45;17.40;99.90
19415;DHT22;9843;48.882;12.592;2022-08-21T03:13:13;17.40;99.90
19415;DHT22;9843;48.882;12.592;2022-08-21T03:15:40;17.40;99.90
19415;DHT22;9843;48.882;12.592;2022-08-21T03:18:09;17.40;99.90
19415;DHT22;9843;48.882;12.592;2022-08-21T03:20:37;17.40;99.90
19415;DHT22;9843;48.882;12.592;2022-08-21T03:23:06;17.40;99.90
19415;DHT22;9843;48.882;12.592;2022-08-21T03:25:33;17.40;99.90
19415;DHT22;9843;48.882;12.592;2022-08-21T03:28:01;17.40;99.90
19415;DHT22;9843;48.882;12.592;2022-08-21T03:30:29;17.40;99.90
19415;DHT22;9843;48.882;12.592;2022-08-21T03:32:56;17.40;99.90
19415;DHT22;9843;48.882;12.592;2022-08-21T03:35:23;17.50;99.90
19415;DHT22;9843;48.882;12.592;2022-08-21T03:37:50;17.50;99.90
19415;DHT22;9843;48.882;12.592;2022-08-21T03:40:18;17.50;99.90
19415;DHT22;9843;48.882;12.592;2022-08-21T03:42:46;17.50;99.90
19415;DHT22;9843;48.882;12.592;2022-08-21T03:45:15;17.50;99.90
19415;DHT22;9843;48.882;12.592;2022-08-21T03:47:51;17.50;99.90
19415;DHT22;9843;48.882;12.592;2022-08-21T03:50:19;17.50;99.90
19415;DHT22;9843;48.882;12.592;2022-08-21T03:52:46;17.50;99.90
19415;DHT22;9843;48.882;12.592;2022-08-21T03:55:12;17.40;99.90
19415;DHT22;9843;48.882;12.592;2022-08-21T03:57:40;17.40;99.90
19415;DHT22;9843;48.882;12.592;2022-08-21T04:00:08;17.40;99.90
19415;DHT22;9843;48.882;12.592;2022-08-21T04:02:37;17.40;99.90
19415;DHT22;9843;48.882;12.592;2022-08-21T04:05:05;17.40;99.90
19415;DHT22;9843;48.882;12.592;2022-08-21T04:07:32;17.30;99.90
19415;DHT22;9843;48.882;12.592;2022-08-21T04:09:59;17.30;99.90
19415;DHT22;9843;48.882;12.592;2022-08-21T04:12:25;17.30;99.90
19415;DHT22;9843;48.882;12.592;2022-08-21T04:14:53;17.30;99.90
19415;DHT22;9843;48.882;12.592;2022-08-21T04:17:20;17.30;99.90
19415;DHT22;9843;48.882;12.592;2022-08-21T04:19:47;17.30;99.90
19415;DHT22;9843;48.882;12.592;2022-08-21T04:22:14;17.30;99.90
19415;DHT22;9843;48.882;12.592;2022-08-21T04:24:41;17.40;99.90
19415;DHT22;9843;48.882;12.592;2022-08-21T04:27:08;17.40;99.90
19415;DHT22;9843;48.882;12.592;2022-08-21T04:29:34;17.40;99.90
19415;DHT22;9843;48.882;12.592;2022-08-21T04:32:03;17.40;99.90
19415;DHT22;9843;48.882;12.592;2022-08-21T04:34:30;17.40;99.90
19415;DHT22;9843;48.882;12.592;2022-08-21T04:36:56;17.40;99.90
19415;DHT22;9843;48.882;12.592;2022-08-21T04:39:23;17.40;99.90
19415;DHT22;9843;48.882;12.592;2022-08-21T04:41:50;17.40;99.90
19415;DHT22;9843;48.882;12.592;2022-08-21T04:44:16;17.40;99.90
19415;DHT22;9843;48.882;12.592;2022-08-21T04:46:43;17.40;99.90
19415;DHT22;9843;48.882;12.592;2022-08-21T04:49:11;17.40;99.90
19415;DHT22;9843;48.882;12.592;2022-08-21T04:51:39;17.40;99.90
19415;DHT22;9843;48.882;12.592;2022-08-21T04:54:09;17.40;99.90
19415;DHT22;9843;48.882;12.592;2022-08-21T04:56:41;17.40;99.90
19415;DHT22;9843;48.882;12.592;2022-08-21T04:59:14;17.50;99.90
19415;DHT22;9843;48.882;12.592;2022-08-21T05:01:43;17.50;99.90
19415;DHT22;9843;48.882;12.592;2022-08-21T05:04:14;17.50;99.90
19415;DHT22;9843;48.882;12.592;2022-08-21T05:06:44;17.50;99.90
19415;DHT22;9843;48.882;12.592;2022-08-21T05:09:13;17.50;99.90
19415;DHT22;9843;48.882;12.592;2022-08-21T05:11:41;17.60;99.90
19415;DHT22;9843;48.882;12.592;2022-08-21T05:14:08;17.60;99.90
19415;DHT22;9843;48.882;12.592;2022-08-21T05:16:35;17.60;99.90
19415;DHT22;9843;48.882;12.592;2022-08-21T05:19:02;17.70;99.90
19415;DHT22;9843;48.882;12.592;2022-08-21T05:21:30;17.60;99.90
19415;DHT22;9843;48.882;12.592;2022-08-21T05:23:57;17.70;99.90
19415;DHT22;9843;48.882;12.592;2022-08-21T05:26:24;17.70;99.90
19415;DHT22;9843;48.882;12.592;2022-08-21T05:28:51;17.70;99.90
19415;DHT22;9843;48.882;12.592;2022-08-21T05:31:18;17.70;99.90
19415;DHT22;9843;48.882;12.592;2022-08-21T05:33:44;17.70;99.90
19415;DHT22;9843;48.882;12.592;2022-08-21T05:36:11;17.70;99.90
19415;DHT22;9843;48.882;12.592;2022-08-21T05:38:39;17.70;99.90
19415;DHT22;9843;48.882;12.592;2022-08-21T05:41:06;17.70;99.90
19415;DHT22;9843;48.882;12.592;2022-08-21T05:43:33;17.70;99.90
19415;DHT22;9843;48.882;12.592;2022-08-21T05:46:01;17.70;99.90
19415;DHT22;9843;48.882;12.592;2022-08-21T05:48:30;17.70;99.90
19415;DHT22;9843;48.882;12.592;2022-08-21T05:50:57;17.70;99.90
19415;DHT22;9843;48.882;12.592;2022-08-21T05:53:24;17.70;99.90
19415;DHT22;9843;48.882;12.592;2022-08-21T05:55:53;17.80;99.90
19415;DHT22;9843;48.882;12.592;2022-08-21T05:58:21;17.90;99.90
19415;DHT22;9843;48.882;12.592;2022-08-21T06:00:49;17.90;99.90
19415;DHT22;9843;48.882;12.592;2022-08-21T06:03:18;18.00;99.90
19415;DHT22;9843;48.882;12.592;2022-08-21T06:05:45;18.10;99.90
19415;DHT22;9843;48.882;12.592;2022-08-21T06:08:12;18.10;99.90
19415;DHT22;9843;48.882;12.592;2022-08-21T06:10:39;18.20;99.90
19415;DHT22;9843;48.882;12.592;2022-08-21T06:13:07;18.30;99.90
19415;DHT22;9843;48.882;12.592;2022-08-21T06:15:34;18.40;99.90
19415;DHT22;9843;48.882;12.592;2022-08-21T06:18:01;18.40;99.90
19415;DHT22;9843;48.882;12.592;2022-08-21T06:20:28;18.50;99.90
19415;DHT22;9843;48.882;12.592;2022-08-21T06:22:55;18.60;99.90
19415;DHT22;9843;48.882;12.592;2022-08-21T06:25:21;18.60;99.90
19415;DHT22;9843;48.882;12.592;2022-08-21T06:27:48;18.60;99.90
19415;DHT22;9843;48.882;12.592;2022-08-21T06:30:17;18.70;99.90
19415;DHT22;9843;48.882;12.592;2022-08-21T06:32:44;18.70;99.90
19415;DHT22;9843;48.882;12.592;2022-08-21T06:35:11;18.70;99.90
19415;DHT22;9843;48.882;12.592;2022-08-21T06:37:38;18.90;99.90
19415;DHT22;9843;48.882;12.592;2022-08-21T06:40:05;18.90;99.90
19415;DHT22;9843;48.882;12.592;2022-08-21T06:42:32;19.00;99.90
19415;DHT22;9843;48.882;12.592;2022-08-21T06:44:59;19.00;99.90
19415;DHT22;9843;48.882;12.592;2022-08-21T06:47:27;19.00;99.90
19415;DHT22;9843;48.882;12.592;2022-08-21T06:49:54;19.00;99.90
19415;DHT22;9843;48.882;12.592;2022-08-21T06:52:20;18.90;99.90
19415;DHT22;9843;48.882;12.592;2022-08-21T06:54:47;18.80;99.90
19415;DHT22;9843;48.882;12.592;2022-08-21T06:57:15;18.80;99.90
19415;DHT22;9843;48.882;12.592;2022-08-21T06:59:42;18.80;99.90
19415;DHT22;9843;48.882;12.592;2022-08-21T07:02:08;18.90;99.90
19415;DHT22;9843;48.882;12.592;2022-08-21T07:04:37;19.00;99.90
19415;DHT22;9843;48.882;12.592;2022-08-21T07:07:04;19.00;99.90
19415;DHT22;9843;48.882;12.592;2022-08-21T07:09:30;19.10;99.90
19415;DHT22;9843;48.882;12.592;2022-08-21T07:11:58;19.30;99.90
19415;DHT22;9843;48.882;12.592;2022-08-21T07:14:25;19.50;99.90
19415;DHT22;9843;48.882;12.592;2022-08-21T07:16:52;19.80;99.90
19415;DHT22;9843;48.882;12.592;2022-08-21T07:19:19;20.00;99.90
19415;DHT22;9843;48.882;12.592;2022-08-21T07:21:47;20.20;99.90
19415;DHT22;9843;48.882;12.592;2022-08-21T07:24:14;20.50;99.90
19415;DHT22;9843;48.882;12.592;2022-08-21T07:26:41;20.70;99.90
19415;DHT22;9843;48.882;12.592;2022-08-21T07:29:07;20.80;99.90
19415;DHT22;9843;48.882;12.592;2022-08-21T07:31:34;20.90;99.90
19415;DHT22;9843;48.882;12.592;2022-08-21T07:34:01;20.90;99.90
19415;DHT22;9843;48.882;12.592;2022-08-21T07:36:28;21.20;99.90
19415;DHT22;9843;48.882;12.592;2022-08-21T07:38:56;21.40;99.90
19415;DHT22;9843;48.882;12.592;2022-08-21T07:41:25;21.70;99.90
19415;DHT22;9843;48.882;12.592;2022-08-21T07:43:53;22.10;99.90
19415;DHT22;9843;48.882;12.592;2022-08-21T07:46:20;22.70;99.90
19415;DHT22;9843;48.882;12.592;2022-08-21T07:48:47;23.20;99.90
19415;DHT22;9843;48.882;12.592;2022-08-21T07:51:15;23.80;99.90
19415;DHT22;9843;48.882;12.592;2022-08-21T07:53:47;24.20;99.90
19415;DHT22;9843;48.882;12.592;2022-08-21T07:56:15;24.30;99.90
19415;DHT22;9843;48.882;12.592;2022-08-21T07:58:43;23.90;99.90
19415;DHT22;9843;48.882;12.592;2022-08-21T08:01:10;23.50;99.90
19415;DHT22;9843;48.882;12.592;2022-08-21T08:03:37;23.80;99.90
19415;DHT22;9843;48.882;12.592;2022-08-21T08:06:04;24.50;99.90
19415;DHT22;9843;48.882;12.592;2022-08-21T08:08:31;25.50;99.90
19415;DHT22;9843;48.882;12.592;2022-08-21T08:10:58;25.90;99.90
19415;DHT22;9843;48.882;12.592;2022-08-21T08:13:28;25.90;99.90
19415;DHT22;9843;48.882;12.592;2022-08-21T08:15:54;25.50;99.90
19415;DHT22;9843;48.882;12.592;2022-08-21T08:18:21;25.10;99.90
19415;DHT22;9843;48.882;12.592;2022-08-21T08:20:48;25.40;99.90
19415;DHT22;9843;48.882;12.592;2022-08-21T08:23:15;25.60;99.90
19415;DHT22;9843;48.882;12.592;2022-08-21T08:25:42;25.40;99.90
19415;DHT22;9843;48.882;12.592;2022-08-21T08:28:09;25.20;99.90
19415;DHT22;9843;48.882;12.592;2022-08-21T08:30:37;24.80;99.90
19415;DHT22;9843;48.882;12.592;2022-08-21T08:33:04;24.60;99.90
19415;DHT22;9843;48.882;12.592;2022-08-21T08:35:31;24.30;99.90
19415;DHT22;9843;48.882;12.592;2022-08-21T08:37:58;23.90;99.90
19415;DHT22;9843;48.882;12.592;2022-08-21T08:40:31;23.90;99.90
19415;DHT22;9843;48.882;12.592;2022-08-21T08:43:01;24.40;99.90
19415;DHT22;9843;48.882;12.592;2022-08-21T08:45:38;25.30;99.90
19415;DHT22;9843;48.882;12.592;2022-08-21T08:48:08;26.10;99.90
19415;DHT22;9843;48.882;12.592;2022-08-21T08:50:41;26.30;99.90
19415;DHT22;9843;48.882;12.592;2022-08-21T08:53:12;26.40;99.90
19415;DHT22;9843;48.882;12.592;2022-08-21T08:55:42;26.80;99.90
19415;DHT22;9843;48.882;12.592;2022-08-21T08:58:22;26.90;99.90
19415;DHT22;9843;48.882;12.592;2022-08-21T09:00:52;26.50;99.90
19415;DHT22;9843;48.882;12.592;2022-08-21T09:03:21;26.50;99.90
19415;DHT22;9843;48.882;12.592;2022-08-21T09:05:54;26.20;99.90
19415;DHT22;9843;48.882;12.592;2022-08-21T09:08:41;26.70;99.90
19415;DHT22;9843;48.882;12.592;2022-08-21T09:11:21;27.50;99.90
19415;DHT22;9843;48.882;12.592;2022-08-21T09:13:54;28.80;99.90
19415;DHT22;9843;48.882;12.592;2022-08-21T09:16:28;30.20;99.90
19415;DHT22;9843;48.882;12.592;2022-08-21T09:19:04;31.00;99.90
19415;DHT22;9843;48.882;12.592;2022-08-21T09:21:38;30.50;99.90
19415;DHT22;9843;48.882;12.592;2022-08-21T09:24:22;29.70;99.90
19415;DHT22;9843;48.882;12.592;2022-08-21T09:26:57;29.20;99.90
19415;DHT22;9843;48.882;12.592;2022-08-21T09:29:30;28.80;99.90
19415;DHT22;9843;48.882;12.592;2022-08-21T09:31:59;28.80;99.90
19415;DHT22;9843;48.882;12.592;2022-08-21T09:34:29;29.00;99.90
19415;DHT22;9843;48.882;12.592;2022-08-21T09:36:57;28.70;99.90
19415;DHT22;9843;48.882;12.592;2022-08-21T09:39:26;29.30;99.90
19415;DHT22;9843;48.882;12.592;2022-08-21T09:41:57;30.10;99.90
19415;DHT22;9843;48.882;12.592;2022-08-21T09:44:26;30.90;99.90
19415;DHT22;9843;48.882;12.592;2022-08-21T09:46:54;31.70;99.90
19415;DHT22;9843;48.882;12.592;2022-08-21T09:49:28;32.60;97.20
19415;DHT22;9843;48.882;12.592;2022-08-21T09:51:56;33.00;94.90
19415;DHT22;9843;48.882;12.592;2022-08-21T09:54:28;33.20;94.40
19415;DHT22;9843;48.882;12.592;2022-08-21T09:56:59;33.80;93.30
19415;DHT22;9843;48.882;12.592;2022-08-21T09:59:46;34.20;90.70
19415;DHT22;9843;48.882;12.592;2022-08-21T10:02:24;34.90;90.50
19415;DHT22;9843;48.882;12.592;2022-08-21T10:04:55;36.00;88.60
19415;DHT22;9843;48.882;12.592;2022-08-21T10:07:24;36.70;84.60
19415;DHT22;9843;48.882;12.592;2022-08-21T10:09:59;36.70;80.50
19415;DHT22;9843;48.882;12.592;2022-08-21T10:12:33;37.00;79.20
19415;DHT22;9843;48.882;12.592;2022-08-21T10:15:10;37.50;78.80
19415;DHT22;9843;48.882;12.592;2022-08-21T10:17:45;37.50;73.30
19415;DHT22;9843;48.882;12.592;2022-08-21T10:20:20;36.60;78.70
19415;DHT22;9843;48.882;12.592;2022-08-21T10:22:57;36.00;76.50
19415;DHT22;9843;48.882;12.592;2022-08-21T10:28:17;34.60;80.40
19415;DHT22;9843;48.882;12.592;2022-08-21T10:30:50;34.50;81.60
19415;DHT22;9843;48.882;12.592;2022-08-21T10:33:35;35.30;78.90
19415;DHT22;9843;48.882;12.592;2022-08-21T10:36:12;36.30;74.90
19415;DHT22;9843;48.882;12.592;2022-08-21T10:38:56;36.50;74.90
19415;DHT22;9843;48.882;12.592;2022-08-21T10:41:32;35.70;74.50
19415;DHT22;9843;48.882;12.592;2022-08-21T10:44:10;35.20;77.80
19415;DHT22;9843;48.882;12.592;2022-08-21T10:46:47;36.30;77.80
19415;DHT22;9843;48.882;12.592;2022-08-21T10:49:31;36.60;70.80
19415;DHT22;9843;48.882;12.592;2022-08-21T10:54:57;35.10;78.20
19415;DHT22;9843;48.882;12.592;2022-08-21T10:57:33;35.10;75.70
19415;DHT22;9843;48.882;12.592;2022-08-21T11:00:04;35.90;73.00
19415;DHT22;9843;48.882;12.592;2022-08-21T11:02:38;36.00;72.60
19415;DHT22;9843;48.882;12.592;2022-08-21T11:05:11;37.10;70.60
19415;DHT22;9843;48.882;12.592;2022-08-21T11:07:45;37.80;67.70
19415;DHT22;9843;48.882;12.592;2022-08-21T11:10:19;37.90;67.80
19415;DHT22;9843;48.882;12.592;2022-08-21T11:12:52;38.30;64.80
19415;DHT22;9843;48.882;12.592;2022-08-21T11:15:28;38.70;66.80
19415;DHT22;9843;48.882;12.592;2022-08-21T11:18:03;39.80;63.20
19415;DHT22;9843;48.882;12.592;2022-08-21T11:20:34;39.90;60.80
19415;DHT22;9843;48.882;12.592;2022-08-21T11:23:10;39.40;61.80
19415;DHT22;9843;48.882;12.592;2022-08-21T11:25:40;39.00;62.00
19415;DHT22;9843;48.882;12.592;2022-08-21T11:28:10;38.60;65.30
19415;DHT22;9843;48.882;12.592;2022-08-21T11:30:49;38.50;63.20
19415;DHT22;9843;48.882;12.592;2022-08-21T11:33:30;39.00;60.90
19415;DHT22;9843;48.882;12.592;2022-08-21T11:36:05;38.90;60.40
19415;DHT22;9843;48.882;12.592;2022-08-21T11:38:41;38.30;62.20
19415;DHT22;9843;48.882;12.592;2022-08-21T11:41:19;38.90;65.40
19415;DHT22;9843;48.882;12.592;2022-08-21T11:43:50;40.00;61.50
19415;DHT22;9843;48.882;12.592;2022-08-21T11:46:26;40.90;58.60
19415;DHT22;9843;48.882;12.592;2022-08-21T11:49:02;41.60;58.30
19415;DHT22;9843;48.882;12.592;2022-08-21T11:51:37;41.40;57.80
19415;DHT22;9843;48.882;12.592;2022-08-21T11:54:12;40.70;58.50
19415;DHT22;9843;48.882;12.592;2022-08-21T11:56:46;40.70;58.50
19415;DHT22;9843;48.882;12.592;2022-08-21T11:59:20;41.00;58.90
19415;DHT22;9843;48.882;12.592;2022-08-21T12:01:50;41.00;59.00
19415;DHT22;9843;48.882;12.592;2022-08-21T12:04:22;40.10;57.60
19415;DHT22;9843;48.882;12.592;2022-08-21T12:06:51;39.40;57.80
19415;DHT22;9843;48.882;12.592;2022-08-21T12:09:32;39.10;59.00
19415;DHT22;9843;48.882;12.592;2022-08-21T12:12:05;39.30;59.30
19415;DHT22;9843;48.882;12.592;2022-08-21T12:14:38;38.90;59.40
19415;DHT22;9843;48.882;12.592;2022-08-21T12:17:08;38.60;61.20
19415;DHT22;9843;48.882;12.592;2022-08-21T12:19:35;38.50;61.40
19415;DHT22;9843;48.882;12.592;2022-08-21T12:22:10;38.40;62.30
19415;DHT22;9843;48.882;12.592;2022-08-21T12:24:41;38.30;61.60
19415;DHT22;9843;48.882;12.592;2022-08-21T12:27:21;37.90;61.00
19415;DHT22;9843;48.882;12.592;2022-08-21T12:29:52;37.70;62.00
19415;DHT22;9843;48.882;12.592;2022-08-21T12:32:25;37.70;63.70
19415;DHT22;9843;48.882;12.592;2022-08-21T12:34:56;37.70;63.70
19415;DHT22;9843;48.882;12.592;2022-08-21T12:37:36;37.10;63.30
19415;DHT22;9843;48.882;12.592;2022-08-21T12:40:23;36.50;66.40
19415;DHT22;9843;48.882;12.592;2022-08-21T12:42:52;36.10;66.10
19415;DHT22;9843;48.882;12.592;2022-08-21T12:45:23;35.70;66.20
19415;DHT22;9843;48.882;12.592;2022-08-21T12:47:57;35.30;66.70
19415;DHT22;9843;48.882;12.592;2022-08-21T12:50:31;34.90;65.10
19415;DHT22;9843;48.882;12.592;2022-08-21T12:53:04;34.10;67.50
19415;DHT22;9843;48.882;12.592;2022-08-21T12:55:34;33.40;69.30
19415;DHT22;9843;48.882;12.592;2022-08-21T12:58:01;33.40;68.40
19415;DHT22;9843;48.882;12.592;2022-08-21T13:00:29;33.40;66.90
19415;DHT22;9843;48.882;12.592;2022-08-21T13:02:56;33.60;67.70
19415;DHT22;9843;48.882;12.592;2022-08-21T13:05:29;33.50;67.20
19415;DHT22;9843;48.882;12.592;2022-08-21T13:07:56;33.40;66.00
19415;DHT22;9843;48.882;12.592;2022-08-21T13:10:25;33.20;66.90
19415;DHT22;9843;48.882;12.592;2022-08-21T13:12:57;33.10;66.60
19415;DHT22;9843;48.882;12.592;2022-08-21T13:15:26;32.90;67.20
19415;DHT22;9843;48.882;12.592;2022-08-21T13:17:54;32.90;69.10
19415;DHT22;9843;48.882;12.592;2022-08-21T13:20:28;32.70;67.40
19415;DHT22;9843;48.882;12.592;2022-08-21T13:22:55;32.70;69.50
19415;DHT22;9843;48.882;12.592;2022-08-21T13:25:27;32.80;68.10
19415;DHT22;9843;48.882;12.592;2022-08-21T13:28:00;32.90;67.20
19415;DHT22;9843;48.882;12.592;2022-08-21T13:30:28;32.90;70.40
19415;DHT22;9843;48.882;12.592;2022-08-21T13:32:58;33.00;67.20
19415;DHT22;9843;48.882;12.592;2022-08-21T13:35:28;32.70;66.90
19415;DHT22;9843;48.882;12.592;2022-08-21T13:37:55;32.30;66.40
19415;DHT22;9843;48.882;12.592;2022-08-21T13:40:29;32.00;67.10
19415;DHT22;9843;48.882;12.592;2022-08-21T13:42:56;31.70;67.80
19415;DHT22;9843;48.882;12.592;2022-08-21T13:45:27;31.60;66.70
19415;DHT22;9843;48.882;12.592;2022-08-21T13:47:54;31.70;67.60
19415;DHT22;9843;48.882;12.592;2022-08-21T13:50:23;31.60;68.90
19415;DHT22;9843;48.882;12.592;2022-08-21T13:52:57;31.50;70.00
19415;DHT22;9843;48.882;12.592;2022-08-21T13:55:25;31.30;69.80
19415;DHT22;9843;48.882;12.592;2022-08-21T13:58:02;31.60;69.00
19415;DHT22;9843;48.882;12.592;2022-08-21T14:00:32;31.70;68.60
19415;DHT22;9843;48.882;12.592;2022-08-21T14:03:04;31.70;65.80
19415;DHT22;9843;48.882;12.592;2022-08-21T14:05:33;31.60;66.10
19415;DHT22;9843;48.882;12.592;2022-08-21T14:08:04;31.70;66.10
19415;DHT22;9843;48.882;12.592;2022-08-21T14:10:31;31.60;65.60
19415;DHT22;9843;48.882;12.592;2022-08-21T14:13:07;31.60;65.00
19415;DHT22;9843;48.882;12.592;2022-08-21T14:15:35;31.50;66.00
19415;DHT22;9843;48.882;12.592;2022-08-21T14:18:18;31.40;65.40
19415;DHT22;9843;48.882;12.592;2022-08-21T14:20:45;31.90;65.10
19415;DHT22;9843;48.882;12.592;2022-08-21T14:23:23;32.40;63.80
19415;DHT22;9843;48.882;12.592;2022-08-21T14:25:50;32.20;61.20
19415;DHT22;9843;48.882;12.592;2022-08-21T14:28:23;31.60;64.80
19415;DHT22;9843;48.882;12.592;2022-08-21T14:30:52;31.20;66.70
19415;DHT22;9843;48.882;12.592;2022-08-21T14:33:25;31.00;68.20
19415;DHT22;9843;48.882;12.592;2022-08-21T14:35:52;30.80;67.50
19415;DHT22;9843;48.882;12.592;2022-08-21T14:38:21;30.70;65.10
19415;DHT22;9843;48.882;12.592;2022-08-21T14:40:52;30.40;66.00
19415;DHT22;9843;48.882;12.592;2022-08-21T14:43:19;30.00;67.80
19415;DHT22;9843;48.882;12.592;2022-08-21T14:45:46;29.50;67.80
19415;DHT22;9843;48.882;12.592;2022-08-21T14:48:14;29.20;71.70
19415;DHT22;9843;48.882;12.592;2022-08-21T14:50:41;28.90;70.40
19415;DHT22;9843;48.882;12.592;2022-08-21T14:53:08;28.60;69.70
19415;DHT22;9843;48.882;12.592;2022-08-21T14:55:36;28.30;73.20
19415;DHT22;9843;48.882;12.592;2022-08-21T14:58:17;28.00;70.10
19415;DHT22;9843;48.882;12.592;2022-08-21T15:00:44;27.60;71.60
19415;DHT22;9843;48.882;12.592;2022-08-21T15:03:10;27.30;73.90
19415;DHT22;9843;48.882;12.592;2022-08-21T15:05:38;27.20;74.60
19415;DHT22;9843;48.882;12.592;2022-08-21T15:08:05;27.00;75.20
19415;DHT22;9843;48.882;12.592;2022-08-21T15:10:33;26.80;74.70
19415;DHT22;9843;48.882;12.592;2022-08-21T15:13:00;26.60;75.90
19415;DHT22;9843;48.882;12.592;2022-08-21T15:15:28;26.50;75.90
19415;DHT22;9843;48.882;12.592;2022-08-21T15:17:55;26.30;75.80
19415;DHT22;9843;48.882;12.592;2022-08-21T15:20:21;26.20;76.90
19415;DHT22;9843;48.882;12.592;2022-08-21T15:22:49;26.00;77.70
19415;DHT22;9843;48.882;12.592;2022-08-21T15:25:17;25.90;79.20
19415;DHT22;9843;48.882;12.592;2022-08-21T15:27:43;25.80;80.50
19415;DHT22;9843;48.882;12.592;2022-08-21T15:30:11;25.70;79.90
19415;DHT22;9843;48.882;12.592;2022-08-21T15:32:38;25.70;80.50
19415;DHT22;9843;48.882;12.592;2022-08-21T15:35:06;25.70;80.60
19415;DHT22;9843;48.882;12.592;2022-08-21T15:37:32;25.60;80.40
19415;DHT22;9843;48.882;12.592;2022-08-21T15:40:01;25.60;80.70
19415;DHT22;9843;48.882;12.592;2022-08-21T15:42:27;25.60;80.80
19415;DHT22;9843;48.882;12.592;2022-08-21T15:44:55;25.50;82.50
19415;DHT22;9843;48.882;12.592;2022-08-21T15:47:28;25.40;81.50
19415;DHT22;9843;48.882;12.592;2022-08-21T15:49:55;25.30;82.80